Time;durP1;ratioP1;P1;durP2;ratioP2;P2;SDS_P1;SDS_P2;PMS_P1;PMS_P2;Temp;Humidity;BMP_temperature;BMP_pressure;BME280_temperature;BME280_humidity;BME280_pressure;Samples;Min_cycle;Max_cycle;Signal;HPM_P1;HPM_P2
2023/11/28 00:02:54;;;;;;;2.97;2.77;;;5.30;45.40;;;;;;10261758;28;20234;-76
2023/11/28 00:08:00;;;;;;;2.80;2.60;;;5.30;45.60;;;;;;10266112;28;20220;-76
2023/11/28 00:13:03;;;;;;;2.63;2.43;;;5.30;45.50;;;;;;10263034;28;20228;-76
2023/11/28 00:18:07;;;;;;;2.70;2.50;;;5.30;45.60;;;;;;10266711;28;20227;-76
2023/11/28 00:23:11;;;;;;;2.20;2.10;;;5.40;45.90;;;;;;10265246;28;20250;-76
2023/11/28 00:28:14;;;;;;;2.20;2.10;;;5.40;45.60;;;;;;10265320;28;20230;-76
2023/11/28 00:33:19;;;;;;;1.43;1.37;;;5.50;45.70;;;;;;10262053;28;20969;-76
2023/11/28 00:38:22;;;;;;;1.37;1.27;;;5.50;46.00;;;;;;10264838;28;20921;-76
2023/11/28 00:43:25;;;;;;;1.00;1.00;;;5.50;45.90;;;;;;10263840;28;20228;-77
2023/11/28 00:48:30;;;;;;;1.00;1.00;;;5.50;46.00;;;;;;10262657;28;20317;-77
2023/11/28 00:53:33;;;;;;;1.17;1.17;;;5.60;46.20;;;;;;10261645;28;20883;-76
2023/11/28 00:58:36;;;;;;;1.17;1.13;;;5.60;45.90;;;;;;10264157;28;21119;-76
2023/11/28 01:03:41;;;;;;;0.90;0.90;;;5.70;46.00;;;;;;10267023;28;20228;-76
2023/11/28 01:08:45;;;;;;;1.20;1.10;;;5.70;46.20;;;;;;10262465;28;20824;-76
2023/11/28 01:13:48;;;;;;;0.80;0.80;;;5.70;45.90;;;;;;10267549;28;20706;-76
2023/11/28 01:18:52;;;;;;;0.90;0.90;;;5.80;46.00;;;;;;10264353;28;20231;-76
2023/11/28 01:23:56;;;;;;;0.90;0.90;;;5.80;46.20;;;;;;10270026;28;20230;-77
2023/11/28 01:28:59;;;;;;;1.10;1.10;;;5.80;46.10;;;;;;10262921;28;20235;-76
2023/11/28 01:34:04;;;;;;;1.10;1.10;;;5.80;46.00;;;;;;10258634;28;20238;-76
2023/11/28 01:39:19;;;;;;;1.00;1.00;;;5.80;46.20;;;;;;10264582;28;20254;-76
2023/11/28 01:44:23;;;;;;;0.90;0.90;;;5.90;46.00;;;;;;10263932;28;20242;-76
2023/11/28 01:49:34;;;;;;;0.87;0.87;;;5.90;46.00;;;;;;10263442;28;20234;-75
2023/11/28 01:54:38;;;;;;;0.83;0.83;;;5.90;46.10;;;;;;10268515;28;20231;-76
2023/11/28 01:59:42;;;;;;;1.37;1.00;;;5.90;45.90;;;;;;10260574;28;20236;-76
2023/11/28 02:04:48;;;;;;;1.10;1.10;;;5.90;45.90;;;;;;10261165;28;20351;-75
2023/11/28 02:09:51;;;;;;;1.00;1.00;;;5.90;46.10;;;;;;10269333;28;20231;-75
2023/11/28 02:14:54;;;;;;;1.07;1.07;;;5.90;46.10;;;;;;10273766;28;20223;-76
2023/11/28 02:19:59;;;;;;;0.97;0.97;;;6.00;46.00;;;;;;10277631;28;20231;-75
2023/11/28 02:25:05;;;;;;;1.10;1.00;;;6.00;46.20;;;;;;10270683;28;20322;-75
2023/11/28 02:30:11;;;;;;;1.00;1.00;;;6.00;46.20;;;;;;10270123;28;20251;-75
2023/11/28 02:35:14;;;;;;;1.03;1.03;;;6.00;46.40;;;;;;10266406;28;20666;-75
2023/11/28 02:40:25;;;;;;;1.00;1.00;;;6.00;46.20;;;;;;10268856;28;20262;-75
2023/11/28 02:45:31;;;;;;;0.90;0.90;;;6.10;46.60;;;;;;10274208;28;20232;-75
2023/11/28 02:50:34;;;;;;;0.90;0.90;;;6.10;47.10;;;;;;10272945;28;20227;-76
2023/11/28 02:55:37;;;;;;;1.00;1.00;;;6.20;46.80;;;;;;10269354;28;20250;-75
2023/11/28 03:00:42;;;;;;;0.70;0.70;;;6.30;46.90;;;;;;10270788;28;20240;-76
2023/11/28 03:05:45;;;;;;;0.97;0.80;;;6.30;47.10;;;;;;10267832;28;20258;-75
2023/11/28 03:10:49;;;;;;;0.70;0.70;;;6.40;46.80;;;;;;10270270;28;20232;-76
2023/11/28 03:15:54;;;;;;;0.60;0.60;;;6.40;46.70;;;;;;10266078;28;20235;-76
2023/11/28 03:20:57;;;;;;;0.70;0.70;;;6.50;46.90;;;;;;10263032;28;20235;-76
2023/11/28 03:26:00;;;;;;;1.13;0.80;;;6.50;46.70;;;;;;10275852;28;20310;-76
2023/11/28 03:31:06;;;;;;;0.80;0.80;;;6.50;46.50;;;;;;10258994;28;20215;-76
2023/11/28 03:36:16;;;;;;;0.80;0.80;;;6.60;46.70;;;;;;10263501;28;20229;-75
2023/11/28 03:41:19;;;;;;;1.00;1.00;;;6.60;47.10;;;;;;10268380;28;20708;-75
2023/11/28 03:46:24;;;;;;;1.30;1.20;;;6.60;46.50;;;;;;10258969;28;20682;-75
2023/11/28 03:51:27;;;;;;;1.20;1.10;;;6.60;46.80;;;;;;10274398;28;20718;-76
2023/11/28 03:56:31;;;;;;;0.90;0.90;;;6.60;46.50;;;;;;10269639;28;20243;-76
2023/11/28 04:01:35;;;;;;;1.43;1.00;;;6.70;46.70;;;;;;10269794;28;20236;-76
2023/11/28 04:06:39;;;;;;;1.00;1.00;;;6.60;46.90;;;;;;10271029;28;20699;-75
2023/11/28 04:11:42;;;;;;;0.90;0.90;;;6.60;46.70;;;;;;10263807;28;20928;-76
2023/11/28 04:16:46;;;;;;;1.77;1.40;;;6.70;46.70;;;;;;10271746;28;20615;-76
2023/11/28 04:21:51;;;;;;;1.30;1.20;;;6.70;47.00;;;;;;10269996;28;20240;-76
2023/11/28 04:26:54;;;;;;;0.90;0.90;;;6.70;47.70;;;;;;10265952;28;20263;-76
2023/11/28 04:31:59;;;;;;;1.10;1.00;;;6.80;46.90;;;;;;10266393;28;20670;-76
2023/11/28 04:37:03;;;;;;;1.03;1.03;;;6.80;47.20;;;;;;10263515;28;21054;-76
2023/11/28 04:42:06;;;;;;;1.27;1.20;;;6.80;46.80;;;;;;10261672;28;20252;-76
2023/11/28 04:47:10;;;;;;;1.30;1.20;;;6.90;47.00;;;;;;10265525;28;20219;-75
2023/11/28 04:52:14;;;;;;;0.97;0.97;;;6.90;47.20;;;;;;10264336;28;20235;-75
2023/11/28 04:57:17;;;;;;;1.13;1.13;;;6.90;47.10;;;;;;10266994;28;20223;-76
2023/11/28 05:02:22;;;;;;;0.80;0.80;;;6.90;47.20;;;;;;10254729;28;20621;-75
2023/11/28 05:07:25;;;;;;;1.00;1.00;;;7.00;47.50;;;;;;10256888;28;20234;-76
2023/11/28 05:12:30;;;;;;;1.00;0.80;;;7.00;47.20;;;;;;10249143;28;20231;-75
2023/11/28 05:17:35;;;;;;;0.90;0.90;;;7.10;47.70;;;;;;10252942;28;20598;-76
2023/11/28 05:22:38;;;;;;;3.53;1.67;;;7.10;47.50;;;;;;10262339;28;20225;-76
2023/11/28 05:27:42;;;;;;;1.03;1.03;;;7.10;47.20;;;;;;10260720;28;20224;-76
2023/11/28 05:32:46;;;;;;;0.80;0.80;;;7.10;47.30;;;;;;10263312;28;20244;-76
2023/11/28 05:37:50;;;;;;;0.90;0.90;;;7.20;47.70;;;;;;10268757;28;20255;-76
2023/11/28 05:42:53;;;;;;;1.20;1.20;;;7.20;47.40;;;;;;10270027;28;20240;-74
2023/11/28 05:47:58;;;;;;;1.00;1.00;;;7.20;47.40;;;;;;10275921;28;20238;-73
2023/11/28 05:53:01;;;;;;;0.83;0.83;;;7.20;47.50;;;;;;10297347;28;20286;-75
2023/11/28 05:58:04;;;;;;;1.40;1.30;;;7.20;47.20;;;;;;10284290;28;20769;-75
2023/11/28 06:03:09;;;;;;;1.20;1.10;;;7.30;47.20;;;;;;10286167;28;20278;-75
2023/11/28 06:08:13;;;;;;;0.90;0.90;;;7.30;47.40;;;;;;10288365;28;20257;-75
2023/11/28 06:13:16;;;;;;;0.80;0.80;;;7.30;47.00;;;;;;10301392;28;20234;-73
2023/11/28 06:18:21;;;;;;;0.70;0.70;;;7.30;46.90;;;;;;10303305;28;20247;-74
2023/11/28 06:23:24;;;;;;;1.20;1.20;;;7.30;47.00;;;;;;10279250;28;20234;-74
2023/11/28 06:28:28;;;;;;;1.10;1.10;;;7.40;46.90;;;;;;10286593;28;20246;-74
2023/11/28 06:33:32;;;;;;;0.90;0.90;;;7.30;46.90;;;;;;10290866;28;20771;-74
2023/11/28 06:38:35;;;;;;;1.20;1.20;;;7.30;47.00;;;;;;10275375;28;20228;-74
2023/11/28 06:43:39;;;;;;;1.70;1.60;;;7.30;46.90;;;;;;10277756;28;20227;-74
2023/11/28 06:48:43;;;;;;;2.30;2.10;;;7.40;46.90;;;;;;10270778;28;20232;-74
2023/11/28 06:53:47;;;;;;;2.83;2.63;;;7.40;47.00;;;;;;10279538;28;20244;-76
2023/11/28 06:58:51;;;;;;;3.07;2.87;;;7.40;46.70;;;;;;10288425;28;20220;-76
2023/11/28 07:03:57;;;;;;;2.70;2.50;;;7.40;46.90;;;;;;10264574;28;20243;-76
2023/11/28 07:09:00;;;;;;;2.03;1.93;;;7.50;47.10;;;;;;10275324;28;20231;-75
2023/11/28 07:14:03;;;;;;;1.50;1.40;;;7.50;46.80;;;;;;10279799;28;20231;-75
2023/11/28 07:19:08;;;;;;;2.87;2.63;;;7.50;46.70;;;;;;10272656;28;20228;-75
2023/11/28 07:24:11;;;;;;;8.23;7.07;;;7.60;46.90;;;;;;10285040;28;20235;-75
2023/11/28 07:29:14;;;;;;;14.43;9.23;;;7.60;46.60;;;;;;10272031;28;20255;-75
2023/11/28 07:34:19;;;;;;;12.43;7.77;;;7.70;46.70;;;;;;10277442;28;20302;-75
2023/11/28 07:39:23;;;;;;;3.50;2.80;;;7.70;46.80;;;;;;10284835;28;20227;-76
2023/11/28 07:44:26;;;;;;;1.93;1.83;;;7.70;46.50;;;;;;10278033;28;20238;-76
2023/11/28 07:49:31;;;;;;;1.40;1.30;;;7.70;46.70;;;;;;10265074;28;20231;-76
2023/11/28 07:54:34;;;;;;;0.90;0.90;;;7.60;47.00;;;;;;10265523;28;20232;-76
2023/11/28 07:59:37;;;;;;;1.00;1.00;;;7.60;46.80;;;;;;10270838;28;21037;-76
2023/11/28 08:04:41;;;;;;;0.70;0.70;;;7.60;46.70;;;;;;10278072;28;20290;-76
2023/11/28 08:09:45;;;;;;;0.80;0.80;;;7.60;46.90;;;;;;10266407;28;20232;-76
2023/11/28 08:14:48;;;;;;;1.00;1.00;;;7.60;46.90;;;;;;10268580;28;20879;-76
2023/11/28 08:19:52;;;;;;;0.83;0.83;;;7.70;46.90;;;;;;10267901;28;20756;-77
2023/11/28 08:24:55;;;;;;;0.70;0.70;;;7.70;47.20;;;;;;10268612;28;20231;-77
2023/11/28 08:29:59;;;;;;;0.97;0.97;;;7.70;47.00;;;;;;10272746;28;20325;-76
2023/11/28 08:35:09;;;;;;;0.80;0.80;;;7.60;47.00;;;;;;10262120;28;20657;-78
2023/11/28 08:40:13;;;;;;;0.77;0.77;;;7.70;47.40;;;;;;10261590;28;20238;-76
2023/11/28 08:45:16;;;;;;;0.70;0.70;;;7.60;47.80;;;;;;10273036;28;20318;-78
2023/11/28 08:50:21;;;;;;;0.77;0.77;;;7.60;47.00;;;;;;10273548;28;20318;-77
2023/11/28 08:55:24;;;;;;;0.90;0.90;;;7.60;47.10;;;;;;10275798;28;20231;-76
2023/11/28 09:00:28;;;;;;;2.43;1.20;;;7.60;47.00;;;;;;10269092;28;20637;-76
2023/11/28 09:05:32;;;;;;;1.20;1.20;;;7.60;47.60;;;;;;10275366;28;21049;-77
2023/11/28 09:10:36;;;;;;;0.70;0.70;;;7.60;47.40;;;;;;10268692;28;20228;-76
2023/11/28 09:15:39;;;;;;;1.17;1.17;;;7.60;47.00;;;;;;10270052;28;20244;-76
2023/11/28 09:20:44;;;;;;;0.80;0.80;;;7.60;47.20;;;;;;10275054;28;20634;-79
2023/11/28 09:25:47;;;;;;;1.30;1.20;;;7.60;47.50;;;;;;10267749;28;21089;-77
2023/11/28 09:31:02;;;;;;;1.50;1.40;;;7.60;47.20;;;;;;10268655;28;20220;-76
2023/11/28 09:36:08;;;;;;;1.83;1.30;;;7.70;47.00;;;;;;10271182;28;20233;-77
2023/11/28 09:41:12;;;;;;;1.67;1.40;;;7.70;47.10;;;;;;10273324;28;20232;-77
2023/11/28 09:46:16;;;;;;;1.40;1.20;;;7.70;46.90;;;;;;10275097;28;20227;-79
2023/11/28 09:51:21;;;;;;;0.90;0.90;;;7.70;46.90;;;;;;10267491;28;20224;-76
2023/11/28 09:56:25;;;;;;;1.20;1.07;;;7.70;46.80;;;;;;10266312;28;20235;-77
2023/11/28 10:01:31;;;;;;;0.87;0.87;;;7.60;46.60;;;;;;10264066;28;20224;-77
2023/11/28 10:06:37;;;;;;;0.90;0.90;;;7.50;46.70;;;;;;10284641;28;20256;-77
2023/11/28 10:11:43;;;;;;;1.37;1.27;;;7.50;46.90;;;;;;10272858;28;20302;-76
2023/11/28 10:16:49;;;;;;;0.80;0.80;;;7.50;46.70;;;;;;10277330;28;20250;-77
2023/11/28 10:21:53;;;;;;;1.67;1.23;;;7.40;46.70;;;;;;10274930;28;20241;-78
2023/11/28 10:26:58;;;;;;;0.87;0.70;;;7.40;46.30;;;;;;10282298;28;20229;-78
2023/11/28 10:32:02;;;;;;;0.80;0.80;;;7.30;46.40;;;;;;10287283;28;20229;-76
2023/11/28 10:37:07;;;;;;;0.60;0.60;;;7.30;46.50;;;;;;10271822;28;20227;-77
2023/11/28 10:42:11;;;;;;;0.50;0.50;;;7.30;46.30;;;;;;10277692;28;20237;-77
2023/11/28 10:47:16;;;;;;;0.60;0.60;;;7.20;45.70;;;;;;10282440;28;20234;-74
2023/11/28 10:52:21;;;;;;;0.70;0.70;;;7.00;46.10;;;;;;10277983;28;20234;-75
2023/11/28 10:57:28;;;;;;;0.60;0.60;;;7.00;46.10;;;;;;10274742;28;20242;-74
2023/11/28 11:02:31;;;;;;;0.50;0.50;;;6.90;46.00;;;;;;10271698;28;20260;-76
2023/11/28 11:07:37;;;;;;;0.53;0.53;;;6.80;46.00;;;;;;10276409;28;20236;-74
2023/11/28 11:12:42;;;;;;;0.50;0.50;;;6.70;46.10;;;;;;10270012;28;20227;-74
2023/11/28 11:17:52;;;;;;;0.60;0.60;;;6.60;46.20;;;;;;10268652;28;21209;-73
2023/11/28 11:23:02;;;;;;;0.60;0.60;;;6.60;46.30;;;;;;10266020;28;20314;-74
2023/11/28 11:28:05;;;;;;;0.80;0.80;;;6.50;46.30;;;;;;10258014;28;20298;-73
2023/11/28 11:33:12;;;;;;;0.70;0.70;;;6.40;46.20;;;;;;10259520;28;20258;-73
2023/11/28 11:38:28;;;;;;;0.70;0.70;;;6.30;46.40;;;;;;10269180;28;20235;-74
2023/11/28 11:43:37;;;;;;;0.70;0.70;;;6.20;46.70;;;;;;10256252;28;20241;-73
2023/11/28 11:48:41;;;;;;;0.50;0.50;;;6.20;46.60;;;;;;10261510;28;20286;-75
2023/11/28 11:53:47;;;;;;;0.67;0.67;;;6.20;46.60;;;;;;10264027;28;20318;-73
2023/11/28 11:58:51;;;;;;;0.77;0.77;;;6.10;46.70;;;;;;10259075;28;20617;-72
2023/11/28 12:03:59;;;;;;;0.70;0.70;;;6.10;46.20;;;;;;10256797;28;20228;-72
2023/11/28 12:09:04;;;;;;;0.80;0.80;;;6.10;46.50;;;;;;10262984;28;20226;-73
2023/11/28 12:14:07;;;;;;;0.70;0.70;;;6.00;46.50;;;;;;10264666;28;20232;-72
2023/11/28 12:19:11;;;;;;;0.60;0.60;;;6.00;46.40;;;;;;10262048;28;20238;-73
2023/11/28 12:24:16;;;;;;;0.60;0.60;;;6.00;46.30;;;;;;10279428;28;20227;-73
2023/11/28 12:29:19;;;;;;;0.77;0.77;;;6.00;46.30;;;;;;10266391;28;20224;-74
2023/11/28 12:34:24;;;;;;;0.70;0.70;;;6.00;46.20;;;;;;10267788;28;20821;-73
2023/11/28 12:39:30;;;;;;;0.80;0.80;;;6.00;46.20;;;;;;10277170;28;20255;-73
2023/11/28 12:44:36;;;;;;;0.60;0.60;;;5.90;46.40;;;;;;10275113;28;20239;-73
2023/11/28 12:49:40;;;;;;;0.80;0.80;;;5.90;46.30;;;;;;10277992;28;20228;-73
2023/11/28 12:54:45;;;;;;;0.80;0.80;;;5.90;46.10;;;;;;10274062;28;20239;-73
2023/11/28 12:59:49;;;;;;;0.90;0.90;;;5.90;45.90;;;;;;10274612;28;20235;-74
2023/11/28 13:04:52;;;;;;;1.37;1.27;;;5.80;45.70;;;;;;10269494;28;20239;-73
2023/11/28 13:09:59;;;;;;;0.90;0.90;;;5.80;45.60;;;;;;10272996;28;20258;-73
2023/11/28 13:15:04;;;;;;;0.80;0.80;;;5.70;45.40;;;;;;10271129;28;20725;-73
2023/11/28 13:20:08;;;;;;;1.00;1.00;;;5.60;45.50;;;;;;10274637;28;20239;-74
2023/11/28 13:25:13;;;;;;;1.70;1.20;;;5.60;45.40;;;;;;10260793;28;20223;-72
2023/11/28 13:30:17;;;;;;;0.70;0.70;;;5.50;45.20;;;;;;10264564;28;20227;-73
2023/11/28 13:35:20;;;;;;;1.07;0.97;;;5.40;45.50;;;;;;10263985;28;20234;-72
2023/11/28 13:40:26;;;;;;;1.10;1.10;;;5.40;45.40;;;;;;10278831;28;20239;-74
2023/11/28 13:45:33;;;;;;;1.63;1.30;;;5.40;45.90;;;;;;10270392;28;20263;-75
2023/11/28 13:50:37;;;;;;;0.97;0.97;;;5.40;45.50;;;;;;10259688;28;20232;-74
2023/11/28 13:55:44;;;;;;;1.23;1.17;;;5.40;45.50;;;;;;10268038;28;20322;-73
2023/11/28 14:00:47;;;;;;;1.00;1.00;;;5.30;45.40;;;;;;10278675;28;20944;-74
2023/11/28 14:05:50;;;;;;;1.20;1.10;;;5.30;45.50;;;;;;10290519;28;20242;-77
2023/11/28 14:10:58;;;;;;;1.57;1.30;;;5.30;45.50;;;;;;10290201;28;20231;-77
2023/11/28 14:16:03;;;;;;;1.30;1.20;;;5.20;45.90;;;;;;10287376;28;20232;-77
2023/11/28 14:21:07;;;;;;;1.40;1.30;;;5.20;45.20;;;;;;10282106;28;20234;-78
2023/11/28 14:26:13;;;;;;;1.57;1.47;;;5.10;45.10;;;;;;10274832;28;20770;-78
2023/11/28 14:31:18;;;;;;;1.90;1.80;;;5.00;45.10;;;;;;10276082;28;20228;-78
2023/11/28 14:36:22;;;;;;;3.37;1.80;;;5.00;45.00;;;;;;10279340;28;20231;-78
2023/11/28 14:41:27;;;;;;;1.87;1.77;;;4.90;44.70;;;;;;10294803;28;20258;-78
2023/11/28 14:46:30;;;;;;;2.00;1.90;;;4.90;45.00;;;;;;10279718;28;20231;-78
2023/11/28 14:51:36;;;;;;;1.90;1.80;;;4.80;44.90;;;;;;10301469;28;20231;-78
2023/11/28 14:56:41;;;;;;;1.93;1.83;;;4.70;44.80;;;;;;10281913;28;20232;-78
2023/11/28 15:01:45;;;;;;;2.27;2.10;;;4.70;44.50;;;;;;10285877;28;20322;-78
2023/11/28 15:06:50;;;;;;;2.30;2.20;;;4.60;44.70;;;;;;10285979;28;20228;-78
2023/11/28 15:11:54;;;;;;;2.13;2.03;;;4.60;44.70;;;;;;10288837;28;20259;-79
2023/11/28 15:16:57;;;;;;;2.30;2.20;;;4.50;44.60;;;;;;10287055;28;20622;-78
2023/11/28 15:22:01;;;;;;;2.60;2.40;;;4.40;44.70;;;;;;10288311;28;20235;-78
2023/11/28 15:27:07;;;;;;;2.20;2.10;;;4.40;45.00;;;;;;10279529;28;20227;-78
2023/11/28 15:32:10;;;;;;;2.80;2.57;;;4.40;45.00;;;;;;10290939;28;20236;-78
2023/11/28 15:37:14;;;;;;;3.17;2.60;;;4.40;44.80;;;;;;10291393;28;20230;-78
2023/11/28 15:42:20;;;;;;;2.70;2.50;;;4.40;44.90;;;;;;10304370;28;20311;-78
2023/11/28 15:47:23;;;;;;;2.90;2.70;;;4.40;44.90;;;;;;10280472;28;20231;-78
2023/11/28 15:52:26;;;;;;;2.63;2.43;;;4.40;44.90;;;;;;10279929;28;20238;-78
2023/11/28 15:57:33;;;;;;;2.20;2.10;;;4.40;44.60;;;;;;10288135;28;20235;-78
2023/11/28 16:02:41;;;;;;;2.47;2.30;;;4.40;44.80;;;;;;10289348;28;20346;-78
2023/11/28 16:07:45;;;;;;;2.40;2.20;;;4.40;44.60;;;;;;10281515;28;20228;-79
2023/11/28 16:12:50;;;;;;;2.63;2.43;;;4.40;44.70;;;;;;10276389;28;20279;-81
2023/11/28 16:17:53;;;;;;;3.13;2.93;;;4.40;44.60;;;;;;10281022;28;20319;-78
2023/11/28 16:22:56;;;;;;;2.40;2.20;;;4.50;44.80;;;;;;10279897;28;20235;-79
2023/11/28 16:28:02;;;;;;;2.63;2.40;;;4.60;45.40;;;;;;10282201;28;20274;-79
2023/11/28 16:33:05;;;;;;;2.90;2.70;;;4.50;44.70;;;;;;10275796;28;20248;-80
2023/11/28 16:38:08;;;;;;;2.83;2.63;;;4.50;44.70;;;;;;10284057;28;20267;-79
2023/11/28 16:43:16;;;;;;;2.70;2.50;;;4.60;45.70;;;;;;10287466;28;20652;-82
2023/11/28 16:48:19;;;;;;;2.80;2.60;;;4.60;45.60;;;;;;10282801;28;20792;-81
2023/11/28 16:53:22;;;;;;;3.00;2.80;;;4.70;45.40;;;;;;10284670;28;20459;-81
2023/11/28 16:58:27;;;;;;;4.90;4.50;;;4.80;44.90;;;;;;10277039;28;20232;-81
2023/11/28 17:03:30;;;;;;;2.90;2.70;;;4.80;44.80;;;;;;10280647;28;20234;-78
2023/11/28 17:08:34;;;;;;;3.80;3.50;;;4.90;44.80;;;;;;10281708;28;20703;-78
2023/11/28 17:13:39;;;;;;;3.30;3.10;;;4.90;44.70;;;;;;10278614;28;20236;-76
2023/11/28 17:18:42;;;;;;;2.87;2.67;;;4.90;44.70;;;;;;10280686;28;20239;-76
2023/11/28 17:23:46;;;;;;;3.10;2.90;;;4.90;44.20;;;;;;10282606;28;20285;-76
2023/11/28 17:28:51;;;;;;;3.10;2.90;;;4.90;44.20;;;;;;10289731;28;20318;-76
2023/11/28 17:33:54;;;;;;;2.80;2.63;;;4.90;44.30;;;;;;10272378;28;20271;-76
2023/11/28 17:38:58;;;;;;;3.20;3.00;;;4.90;44.30;;;;;;10282395;28;20246;-76
2023/11/28 17:44:02;;;;;;;3.20;3.00;;;4.90;44.30;;;;;;10280111;28;20227;-76
2023/11/28 17:49:05;;;;;;;3.20;3.00;;;4.90;44.00;;;;;;10287736;28;20319;-76
2023/11/28 17:54:08;;;;;;;3.23;3.03;;;4.90;43.80;;;;;;10279367;28;20230;-76
2023/11/28 17:59:14;;;;;;;3.43;3.23;;;4.80;43.60;;;;;;10274321;28;20278;-76
2023/11/28 18:04:18;;;;;;;3.70;3.50;;;4.70;43.80;;;;;;10291675;28;20236;-76
2023/11/28 18:09:21;;;;;;;4.20;3.90;;;4.60;44.00;;;;;;10287745;28;20224;-76
2023/11/28 18:14:27;;;;;;;3.80;3.50;;;4.50;44.10;;;;;;10279317;28;20319;-76
2023/11/28 18:19:31;;;;;;;3.27;3.07;;;4.50;44.30;;;;;;10285377;28;20227;-76
2023/11/28 18:24:34;;;;;;;3.50;3.30;;;4.40;44.40;;;;;;10285019;28;20768;-75
2023/11/28 18:29:39;;;;;;;3.50;3.30;;;4.40;44.50;;;;;;10285047;28;20234;-75
2023/11/28 18:34:45;;;;;;;3.73;3.43;;;4.40;44.50;;;;;;10274281;28;20828;-75
2023/11/28 18:39:48;;;;;;;3.13;2.93;;;4.40;44.50;;;;;;10284772;28;20232;-75
2023/11/28 18:44:54;;;;;;;3.73;3.43;;;4.50;44.60;;;;;;10276552;28;20730;-75
2023/11/28 18:49:57;;;;;;;3.30;3.10;;;4.40;44.50;;;;;;10281134;28;20215;-76
2023/11/28 18:55:01;;;;;;;3.30;3.10;;;4.50;44.50;;;;;;10279472;28;20302;-75
2023/11/28 19:00:07;;;;;;;3.63;3.43;;;4.50;44.50;;;;;;10286037;28;20310;-75
2023/11/28 19:05:13;;;;;;;3.50;3.30;;;4.50;44.50;;;;;;10279453;28;20232;-75
2023/11/28 19:10:17;;;;;;;3.80;3.60;;;4.50;44.50;;;;;;10287358;28;20227;-75
2023/11/28 19:15:22;;;;;;;3.70;3.40;;;4.50;44.50;;;;;;10285026;28;20239;-75
2023/11/28 19:20:25;;;;;;;3.93;3.63;;;4.50;44.60;;;;;;10293802;28;20238;-79
2023/11/28 19:25:28;;;;;;;4.10;3.80;;;4.50;44.50;;;;;;10284280;28;20262;-79
2023/11/28 19:30:36;;;;;;;4.10;3.80;;;4.60;44.30;;;;;;10280763;28;20327;-82
2023/11/28 19:35:40;;;;;;;4.30;3.90;;;4.50;44.10;;;;;;10297895;28;20257;-81
2023/11/28 19:40:46;;;;;;;4.30;4.00;;;4.50;44.80;;;;;;10302098;28;20227;-81
2023/11/28 19:45:53;;;;;;;4.23;3.93;;;4.50;44.20;;;;;;10292521;28;20915;-81
2023/11/28 19:50:56;;;;;;;4.17;3.87;;;4.50;44.20;;;;;;10284556;28;20224;-80
2023/11/28 19:56:05;;;;;;;4.27;3.97;;;4.60;44.40;;;;;;10294843;28;20227;-79
2023/11/28 20:01:10;;;;;;;3.90;3.70;;;4.50;44.30;;;;;;10295428;28;21019;-80
2023/11/28 20:06:13;;;;;;;3.87;3.60;;;4.50;44.40;;;;;;10286313;28;20231;-78
2023/11/28 20:11:17;;;;;;;4.50;4.20;;;4.50;44.40;;;;;;10304333;28;20242;-78
2023/11/28 20:16:22;;;;;;;4.30;4.00;;;4.50;44.10;;;;;;10285696;28;20236;-79
2023/11/28 20:21:25;;;;;;;4.83;4.53;;;4.50;44.20;;;;;;10287420;28;20283;-78
2023/11/28 20:26:29;;;;;;;4.17;3.87;;;4.50;44.30;;;;;;10292192;28;20750;-79
2023/11/28 20:31:36;;;;;;;4.60;4.30;;;4.50;44.20;;;;;;10295782;28;20232;-81
2023/11/28 20:36:39;;;;;;;5.10;4.70;;;4.50;43.80;;;;;;10285048;28;20288;-78
2023/11/28 20:48:09;;;;;;;4.03;3.73;;;4.40;43.80;;;;;;10272263;28;20224;-78
2023/11/28 20:58:21;;;;;;;4.37;4.07;;;4.30;43.80;;;;;;10066071;29;20239;-68
2023/11/28 21:03:26;;;;;;;4.93;4.63;;;4.30;44.40;;;;;;10069535;29;20247;-68
2023/11/28 21:08:29;;;;;;;4.93;4.53;;;4.30;44.40;;;;;;10049601;29;20236;-68
2023/11/28 21:13:32;;;;;;;5.20;4.70;;;4.50;44.20;;;;;;10056588;29;20231;-68
2023/11/28 21:18:37;;;;;;;4.97;4.57;;;4.30;43.80;;;;;;10073804;29;20243;-68
2023/11/28 21:23:41;;;;;;;5.23;4.83;;;4.30;44.10;;;;;;10071017;29;20295;-68
2023/11/28 21:28:44;;;;;;;4.77;4.37;;;4.30;44.00;;;;;;10072573;29;20325;-68
2023/11/28 21:33:49;;;;;;;5.20;4.80;;;4.30;44.00;;;;;;10073806;29;20939;-68
2023/11/28 21:38:52;;;;;;;5.07;4.67;;;4.30;44.30;;;;;;10072303;29;20235;-68
2023/11/28 21:43:55;;;;;;;4.97;4.57;;;4.30;44.20;;;;;;10071283;29;20322;-68
2023/11/28 21:49:00;;;;;;;5.13;4.73;;;4.30;44.00;;;;;;10071891;29;20224;-68
2023/11/28 21:54:04;;;;;;;4.90;4.50;;;4.30;43.80;;;;;;10072443;29;20235;-68
2023/11/28 21:59:07;;;;;;;4.80;4.40;;;4.30;44.00;;;;;;10073391;29;20360;-68
2023/11/28 22:04:12;;;;;;;4.37;4.07;;;4.30;44.30;;;;;;10071163;29;20238;-68
2023/11/28 22:09:16;;;;;;;4.80;4.50;;;4.30;44.00;;;;;;10072557;29;20227;-68
2023/11/28 22:14:21;;;;;;;4.40;4.10;;;4.40;44.20;;;;;;10072969;29;20697;-67
2023/11/28 22:19:25;;;;;;;4.60;4.23;;;4.40;44.10;;;;;;10077060;29;20302;-68
2023/11/28 22:24:28;;;;;;;4.67;4.27;;;4.40;43.80;;;;;;10080663;29;20243;-67
2023/11/28 22:29:31;;;;;;;3.67;3.47;;;4.40;43.80;;;;;;10081332;29;20245;-67
2023/11/28 22:34:36;;;;;;;4.70;4.30;;;4.40;43.90;;;;;;10081556;29;20658;-68
2023/11/28 22:39:39;;;;;;;5.20;4.80;;;4.40;43.80;;;;;;10079049;29;20239;-67
2023/11/28 22:44:42;;;;;;;5.20;4.80;;;4.40;43.90;;;;;;10080432;29;20834;-68
2023/11/28 22:49:47;;;;;;;4.77;4.40;;;4.60;44.10;;;;;;10078823;29;20250;-67
2023/11/28 22:54:50;;;;;;;6.00;5.50;;;4.50;44.00;;;;;;10080045;29;20242;-67
2023/11/28 22:59:53;;;;;;;5.50;5.10;;;4.60;44.00;;;;;;10079821;29;20247;-68
2023/11/28 23:04:58;;;;;;;5.90;5.50;;;4.60;44.00;;;;;;10079136;29;20239;-67
2023/11/28 23:10:01;;;;;;;7.10;6.50;;;4.70;43.90;;;;;;10079671;29;20575;-68
2023/11/28 23:15:05;;;;;;;6.60;6.10;;;4.70;43.80;;;;;;10077262;29;20720;-68
2023/11/28 23:20:11;;;;;;;6.40;5.90;;;4.60;43.80;;;;;;10083461;29;20235;-69
2023/11/28 23:30:31;;;;;;;5.97;5.47;;;4.60;43.60;;;;;;2900067;27;20226;-78
2023/11/28 23:35:36;;;;;;;5.43;5.03;;;4.60;43.50;;;;;;10104123;29;20673;-78
2023/11/28 23:40:39;;;;;;;4.87;4.53;;;4.60;43.30;;;;;;10100488;29;20295;-77
2023/11/28 23:45:43;;;;;;;5.00;4.60;;;4.50;43.20;;;;;;10102224;29;20366;-77
2023/11/28 23:50:47;;;;;;;4.67;4.37;;;4.40;43.20;;;;;;10101086;29;20234;-78
2023/11/28 23:55:51;;;;;;;5.30;4.90;;;4.30;43.40;;;;;;10095579;29;20249;-76
